createdAt,value
2022-08-04T00:00:48.725Z,20.4
2022-08-04T00:03:14.810Z,20.3
2022-08-04T00:05:40.921Z,20.3
2022-08-04T00:08:06.998Z,20.3
2022-08-04T00:10:33.111Z,20.3
2022-08-04T00:12:58.226Z,20.2
2022-08-04T00:15:23.356Z,20.2
2022-08-04T00:17:48.468Z,20.2
2022-08-04T00:20:13.585Z,20.2
2022-08-04T00:22:38.707Z,20.2
2022-08-04T00:25:03.835Z,20
2022-08-04T00:27:29.909Z,20
2022-08-04T00:29:55.993Z,19.9
2022-08-04T00:32:22.089Z,19.9
2022-08-04T00:34:48.190Z,19.9
2022-08-04T00:37:14.285Z,19.9
2022-08-04T00:39:40.388Z,19.9
2022-08-04T00:42:06.467Z,19.9
2022-08-04T00:44:32.560Z,19.9
2022-08-04T00:46:58.662Z,19.9
2022-08-04T00:49:24.768Z,19.9
2022-08-04T00:51:50.864Z,19.9
2022-08-04T00:54:16.961Z,19.9
2022-08-04T00:56:42.063Z,19.9
2022-08-04T00:59:08.154Z,19.8
2022-08-04T01:01:34.242Z,19.7
2022-08-04T01:04:00.363Z,19.7
2022-08-04T01:06:26.445Z,19.6
2022-08-04T01:08:52.541Z,19.6
2022-08-04T01:11:18.621Z,19.5
2022-08-04T01:13:43.763Z,19.5
2022-08-04T01:16:08.862Z,19.5
2022-08-04T01:18:33.986Z,19.5
2022-08-04T01:20:59.113Z,19.5
2022-08-04T01:23:25.189Z,19.5
2022-08-04T01:25:51.301Z,19.4
2022-08-04T01:28:17.375Z,19.4
2022-08-04T01:30:43.486Z,19.3
2022-08-04T01:33:09.576Z,19.3
2022-08-04T01:35:35.679Z,19.4
2022-08-04T01:38:01.781Z,19.4
2022-08-04T01:40:27.870Z,19.4
2022-08-04T01:42:53.946Z,19.4
2022-08-04T01:45:20.047Z,19.4
2022-08-04T01:47:46.132Z,19.4
2022-08-04T01:50:12.249Z,19.4
2022-08-04T01:52:37.362Z,19.4
2022-08-04T01:55:03.462Z,19.3
2022-08-04T01:57:29.538Z,19.2
2022-08-04T01:59:59.637Z,19.2
2022-08-04T02:02:21.736Z,19.2
2022-08-04T02:04:47.819Z,19.2
2022-08-04T02:07:13.939Z,19.2
2022-08-04T02:09:39.043Z,19.1
2022-08-04T02:12:04.160Z,19.1
2022-08-04T02:14:29.271Z,19.1
2022-08-04T02:16:54.389Z,19
2022-08-04T02:19:20.486Z,19
2022-08-04T02:21:46.575Z,19
2022-08-04T02:24:11.700Z,18.8
2022-08-04T02:26:36.816Z,18.8
2022-08-04T02:29:02.916Z,18.7
2022-08-04T02:31:28.996Z,18.7
2022-08-04T02:33:55.087Z,18.7
2022-08-04T02:36:21.193Z,18.7
2022-08-04T02:38:47.274Z,18.7
2022-08-04T02:41:13.377Z,18.7
2022-08-04T02:43:39.487Z,18.8
2022-08-04T02:46:05.563Z,18.8
2022-08-04T02:48:31.659Z,18.8
2022-08-04T02:50:57.771Z,18.7
2022-08-04T02:53:23.844Z,18.8
2022-08-04T02:55:49.955Z,18.7
2022-08-04T02:58:15.063Z,18.7
2022-08-04T03:00:41.145Z,18.7
2022-08-04T03:03:07.253Z,18.6
2022-08-04T03:05:33.335Z,18.6
2022-08-04T03:07:59.432Z,18.6
2022-08-04T03:10:25.520Z,18.5
2022-08-04T03:12:51.636Z,18.5
2022-08-04T03:15:16.754Z,18.5
2022-08-04T03:17:41.929Z,18.5
2022-08-04T03:20:06.990Z,18.5
2022-08-04T03:22:32.083Z,18.5
2022-08-04T03:24:58.188Z,18.5
2022-08-04T03:27:24.278Z,18.5
2022-08-04T03:29:50.376Z,18.5
2022-08-04T03:32:16.471Z,18.4
2022-08-04T03:34:42.586Z,18.4
2022-08-04T03:37:08.679Z,18.3
2022-08-04T03:39:34.750Z,18.1
2022-08-04T03:42:00.859Z,18
2022-08-04T03:44:25.971Z,17.9
2022-08-04T03:46:52.059Z,17.9
2022-08-04T03:49:18.155Z,17.9
2022-08-04T03:51:44.248Z,18
2022-08-04T03:54:10.349Z,18.1
2022-08-04T03:56:36.441Z,18.2
2022-08-04T03:59:02.531Z,18.3
2022-08-04T04:01:28.643Z,18.3
2022-08-04T04:03:54.730Z,18.2
2022-08-04T04:06:20.834Z,18.2
2022-08-04T04:08:46.918Z,18.2
2022-08-04T04:11:12.028Z,18.2
2022-08-04T04:13:37.151Z,18.2
2022-08-04T04:16:03.247Z,18.3
2022-08-04T04:18:29.344Z,18.2
2022-08-04T04:20:55.457Z,18.1
2022-08-04T04:23:21.519Z,17.9
2022-08-04T04:25:47.621Z,17.7
2022-08-04T04:28:13.722Z,17.7
2022-08-04T04:30:39.810Z,17.7
2022-08-04T04:33:05.913Z,17.7
2022-08-04T04:35:31.994Z,17.7
2022-08-04T04:37:58.088Z,17.8
2022-08-04T04:40:24.202Z,17.9
2022-08-04T04:42:50.281Z,18.1
2022-08-04T04:45:15.397Z,18.2
2022-08-04T04:47:41.498Z,18.4
2022-08-04T04:50:07.591Z,18.5
2022-08-04T04:52:33.682Z,18.7
2022-08-04T04:54:59.783Z,18.8
2022-08-04T04:57:25.864Z,18.9
2022-08-04T04:59:51.964Z,19
2022-08-04T05:02:17.091Z,19.1
2022-08-04T05:04:42.225Z,19.2
2022-08-04T05:07:08.299Z,19.2
2022-08-04T05:09:34.402Z,19.2
2022-08-04T05:12:00.492Z,19.3
2022-08-04T05:14:26.579Z,19.4
2022-08-04T05:16:52.676Z,19.4
2022-08-04T05:19:18.761Z,19.5
2022-08-04T05:21:44.872Z,19.6
2022-08-04T05:24:10.948Z,19.7
2022-08-04T05:26:37.067Z,19.8
2022-08-04T05:29:03.166Z,19.9
2022-08-04T05:31:29.247Z,20
2022-08-04T05:33:55.350Z,20.1
2022-08-04T05:36:20.470Z,20.3
2022-08-04T05:38:46.547Z,20.4
2022-08-04T05:41:12.636Z,20.5
2022-08-04T05:43:38.732Z,20.5
2022-08-04T05:46:04.831Z,20.7
2022-08-04T05:48:30.921Z,20.8
2022-08-04T05:50:57.030Z,20.9
2022-08-04T05:53:22.145Z,21
2022-08-04T05:55:48.229Z,21.1
2022-08-04T05:58:13.353Z,21.3
2022-08-04T06:00:38.476Z,21.4
2022-08-04T06:03:03.589Z,21.5
2022-08-04T06:05:28.704Z,21.6
2022-08-04T06:07:54.811Z,21.7
2022-08-04T06:10:20.896Z,21.8
2022-08-04T06:12:46.973Z,21.8
2022-08-04T06:15:13.072Z,21.9
2022-08-04T06:17:39.184Z,22
2022-08-04T06:20:05.286Z,22.1
2022-08-04T06:22:31.354Z,22.3
2022-08-04T06:24:57.448Z,22.3
2022-08-04T06:27:23.554Z,22.4
2022-08-04T06:29:49.654Z,22.5
2022-08-04T06:32:15.733Z,22.6
2022-08-04T06:34:41.830Z,22.6
2022-08-04T06:37:07.923Z,22.7
2022-08-04T06:39:33.052Z,22.8
2022-08-04T06:41:59.165Z,22.9
2022-08-04T06:44:25.242Z,23
2022-08-04T06:46:51.318Z,23.1
2022-08-04T06:49:17.414Z,23.2
2022-08-04T06:51:43.526Z,23.3
2022-08-04T06:54:08.659Z,23.4
2022-08-04T06:56:33.754Z,23.5
2022-08-04T06:58:59.843Z,23.6
2022-08-04T07:01:25.938Z,23.8
2022-08-04T07:03:52.055Z,23.8
2022-08-04T07:06:18.143Z,23.9
2022-08-04T07:08:44.235Z,24
2022-08-04T07:11:10.348Z,24.1
2022-08-04T07:13:36.419Z,24.2
2022-08-04T07:16:02.526Z,24.2
2022-08-04T07:18:28.597Z,24.4
2022-08-04T07:20:54.686Z,24.6
2022-08-04T07:23:20.817Z,24.7
2022-08-04T07:25:46.894Z,24.8
2022-08-04T07:28:11.992Z,24.9
2022-08-04T07:30:38.096Z,25
2022-08-04T07:33:04.193Z,25.2
2022-08-04T07:35:30.297Z,25.4
2022-08-04T07:37:56.385Z,25.5
2022-08-04T07:40:22.489Z,25.7
2022-08-04T07:42:48.571Z,25.9
2022-08-04T07:45:13.688Z,26
2022-08-04T07:47:38.809Z,26.2
2022-08-04T07:50:03.914Z,26.3
2022-08-04T07:52:29.030Z,26.5
2022-08-04T07:54:55.146Z,26.7
2022-08-04T07:57:20.243Z,26.9
2022-08-04T07:59:45.369Z,27
2022-08-04T08:02:11.462Z,27.1
2022-08-04T08:04:37.550Z,27.1
2022-08-04T08:07:03.659Z,27.3
2022-08-04T08:09:29.747Z,27.4
2022-08-04T08:11:55.833Z,27.7
2022-08-04T08:14:21.938Z,27.9
2022-08-04T08:16:48.030Z,28.1
2022-08-04T08:19:14.117Z,28.1
2022-08-04T08:21:40.219Z,28.2
2022-08-04T08:24:06.306Z,28.3
2022-08-04T08:26:32.395Z,28.4
2022-08-04T08:28:58.519Z,28.5
2022-08-04T08:31:23.618Z,28.6
2022-08-04T08:33:49.815Z,28.6
2022-08-04T08:36:15.826Z,28.8
2022-08-04T08:38:41.897Z,28.9
2022-08-04T08:41:08.004Z,29
2022-08-04T08:43:34.098Z,29.1
2022-08-04T08:46:00.187Z,29.2
2022-08-04T08:48:25.301Z,29.4
2022-08-04T08:50:50.427Z,29.6
2022-08-04T08:53:16.532Z,29.8
2022-08-04T08:55:41.641Z,29.9
2022-08-04T08:58:06.740Z,30
2022-08-04T09:00:32.843Z,30.2
2022-08-04T09:02:58.948Z,30.3
2022-08-04T09:05:25.036Z,30.4
2022-08-04T09:07:51.122Z,30.6
2022-08-04T09:10:17.233Z,30.6
2022-08-04T09:12:43.310Z,30.8
2022-08-04T09:15:09.421Z,31
2022-08-04T09:17:35.505Z,31.1
2022-08-04T09:20:01.591Z,31.1
2022-08-04T09:22:27.704Z,31.2
2022-08-04T09:24:53.803Z,31.4
2022-08-04T09:27:19.893Z,31.4
2022-08-04T09:29:45.039Z,31.5
2022-08-04T09:32:11.098Z,31.6
2022-08-04T09:34:37.189Z,31.8
2022-08-04T09:37:03.281Z,31.9
2022-08-04T09:39:29.376Z,32
2022-08-04T09:41:55.473Z,32.1
2022-08-04T09:44:21.569Z,32.3
2022-08-04T09:46:46.693Z,32.5
2022-08-04T09:49:11.800Z,32.7
2022-08-04T09:51:36.935Z,32.8
2022-08-04T09:54:02.080Z,33
2022-08-04T09:56:28.143Z,33.2
2022-08-04T09:58:54.245Z,33.2
2022-08-04T10:01:20.345Z,33.2
2022-08-04T10:03:46.420Z,33.2
2022-08-04T10:06:12.522Z,33.3
2022-08-04T10:08:38.607Z,33.4
2022-08-04T10:11:04.711Z,33.5
2022-08-04T10:13:30.810Z,33.7
2022-08-04T10:15:56.907Z,33.8
2022-08-04T10:18:22.990Z,33.9
2022-08-04T10:20:49.096Z,33.9
2022-08-04T10:23:15.235Z,33.8
2022-08-04T10:25:40.291Z,33.8
2022-08-04T10:28:06.405Z,33.8
2022-08-04T10:30:32.503Z,33.8
2022-08-04T10:32:58.595Z,33.8
2022-08-04T10:35:24.714Z,33.9
2022-08-04T10:37:50.784Z,33.9
2022-08-04T10:40:16.880Z,34.1
2022-08-04T10:42:41.995Z,34.3
2022-08-04T10:45:07.117Z,34.3
2022-08-04T10:47:32.255Z,34.3
2022-08-04T10:49:57.359Z,34.4
2022-08-04T10:52:23.440Z,34.6
2022-08-04T10:54:49.543Z,34.7
2022-08-04T10:57:15.630Z,34.8
2022-08-04T10:59:41.743Z,34.7
2022-08-04T11:02:07.829Z,34.7
2022-08-04T11:04:33.916Z,34.8
2022-08-04T11:09:26.106Z,34.9
2022-08-04T11:11:52.202Z,35.1
2022-08-04T11:14:18.289Z,35.2
2022-08-04T11:16:44.409Z,35.2
2022-08-04T11:19:10.496Z,35.2
2022-08-04T11:21:35.612Z,35.2
2022-08-04T11:24:01.702Z,35.2
2022-08-04T11:26:27.794Z,35.3
2022-08-04T11:28:53.905Z,35.5
2022-08-04T11:31:20.001Z,35.7
2022-08-04T11:33:46.079Z,35.8
2022-08-04T11:36:12.180Z,35.8
2022-08-04T11:38:38.277Z,35.8
2022-08-04T11:41:03.418Z,35.8
2022-08-04T11:43:28.520Z,35.8
2022-08-04T11:45:53.623Z,35.9
2022-08-04T11:48:18.764Z,35.9
2022-08-04T11:50:44.849Z,36
2022-08-04T11:53:09.961Z,36
2022-08-04T11:55:36.074Z,36.1
2022-08-04T11:58:02.147Z,36.2
2022-08-04T12:00:28.275Z,36.4
2022-08-04T12:02:54.346Z,36.3
2022-08-04T12:05:20.440Z,36.3
2022-08-04T12:07:46.560Z,36.5
2022-08-04T12:10:12.639Z,36.5
2022-08-04T12:12:38.729Z,36.5
2022-08-04T12:15:04.822Z,36.6
2022-08-04T12:17:30.925Z,36.7
2022-08-04T12:19:57.034Z,36.8
2022-08-04T12:22:23.143Z,36.9
2022-08-04T12:24:48.245Z,36.9
2022-08-04T12:27:14.347Z,36.8
2022-08-04T12:29:40.428Z,37
2022-08-04T12:32:06.512Z,37.2
2022-08-04T12:34:32.619Z,37.3
2022-08-04T12:36:57.739Z,37.5
2022-08-04T12:39:22.847Z,37.4
2022-08-04T12:41:48.951Z,37.5
2022-08-04T12:44:15.054Z,37.6
2022-08-04T12:46:41.143Z,37.5
2022-08-04T12:49:07.245Z,37.7
2022-08-04T12:51:33.332Z,37.7
2022-08-04T12:53:59.435Z,37.7
2022-08-04T12:56:25.536Z,38
2022-08-04T12:58:51.612Z,38.3
2022-08-04T13:01:17.735Z,38.4
2022-08-04T13:03:43.826Z,38.9
2022-08-04T13:06:09.956Z,39
2022-08-04T13:08:36.017Z,39
2022-08-04T13:11:01.127Z,39.5
2022-08-04T13:13:27.251Z,39.8
2022-08-04T13:15:53.338Z,40.3
2022-08-04T13:18:19.417Z,40.5
2022-08-04T13:20:45.523Z,40.6
2022-08-04T13:23:11.620Z,40.7
2022-08-04T13:25:37.715Z,40.8
2022-08-04T13:28:02.845Z,40.6
2022-08-04T13:30:27.954Z,41.3
2022-08-04T13:35:19.189Z,41.5
2022-08-04T13:37:44.293Z,41.5
2022-08-04T13:40:09.434Z,41.7
2022-08-04T13:42:35.527Z,41.6
2022-08-04T13:45:01.631Z,42.1
2022-08-04T13:47:26.769Z,41.7
2022-08-04T13:49:51.856Z,42.2
2022-08-04T13:52:17.942Z,41.2
2022-08-04T13:54:43.081Z,41.9
2022-08-04T13:57:08.185Z,41.9
2022-08-04T13:59:34.297Z,42.5
2022-08-04T14:02:00.385Z,42.2
2022-08-04T14:04:26.494Z,42.7
2022-08-04T14:06:52.603Z,42.6
2022-08-04T14:09:18.704Z,42.9
2022-08-04T14:11:44.789Z,42.4
2022-08-04T14:14:10.884Z,42.5
2022-08-04T14:16:36.983Z,42.5
2022-08-04T14:19:03.084Z,42.1
2022-08-04T14:21:29.177Z,41.7
2022-08-04T14:23:55.269Z,41.7
2022-08-04T14:26:21.373Z,41.8
2022-08-04T14:28:46.483Z,42
2022-08-04T14:31:12.573Z,42.9
2022-08-04T14:33:38.688Z,43
2022-08-04T14:36:04.797Z,43.1
2022-08-04T14:38:30.889Z,43.5
2022-08-04T14:40:56.976Z,43.8
2022-08-04T14:43:23.084Z,44
2022-08-04T14:45:48.221Z,43.7
2022-08-04T14:48:13.329Z,43.5
2022-08-04T14:50:39.431Z,43
2022-08-04T14:53:05.544Z,42.9
2022-08-04T14:55:31.624Z,42.5
2022-08-04T14:57:57.718Z,41.9
2022-08-04T15:00:23.812Z,42
2022-08-04T15:02:49.918Z,42.7
2022-08-04T15:05:16.006Z,42.6
2022-08-04T15:07:42.131Z,42
2022-08-04T15:10:08.230Z,42.9
2022-08-04T15:12:34.312Z,43.3
2022-08-04T15:15:00.407Z,43.3
2022-08-04T15:17:26.508Z,43.7
2022-08-04T15:19:51.627Z,44
2022-08-04T15:22:17.727Z,43.7
2022-08-04T15:24:43.827Z,43.6
2022-08-04T15:27:09.949Z,43.2
2022-08-04T15:29:36.027Z,43
2022-08-04T15:32:02.127Z,42.4
2022-08-04T15:34:28.225Z,42.4
2022-08-04T15:36:53.348Z,42.7
2022-08-04T15:39:18.464Z,43.1
2022-08-04T15:41:43.592Z,41.8
2022-08-04T15:44:08.713Z,41.7
2022-08-04T15:46:34.801Z,42.7
2022-08-04T15:49:00.901Z,42.1
2022-08-04T15:51:27.000Z,42.2
2022-08-04T15:53:53.103Z,42.8
2022-08-04T15:56:19.193Z,43.1
2022-08-04T15:58:45.314Z,42.7
2022-08-04T16:01:11.394Z,42.8
2022-08-04T16:03:37.492Z,42.9
2022-08-04T16:06:03.609Z,43
2022-08-04T16:08:29.688Z,43.4
2022-08-04T16:10:55.797Z,42.6
2022-08-04T16:13:21.916Z,42.4
2022-08-04T16:15:47.021Z,42.5
2022-08-04T16:18:13.124Z,42.2
2022-08-04T16:20:39.207Z,42.1
2022-08-04T16:23:05.308Z,42.7
2022-08-04T16:25:31.394Z,43
2022-08-04T16:27:57.494Z,43.5
2022-08-04T16:30:23.598Z,42.8
2022-08-04T16:32:48.750Z,42.8
2022-08-04T16:35:13.842Z,43.3
2022-08-04T16:37:39.952Z,43.4
2022-08-04T16:40:06.027Z,43
2022-08-04T16:42:32.136Z,42.9
2022-08-04T16:44:58.252Z,43.3
2022-08-04T16:47:24.363Z,43.6
2022-08-04T16:49:50.433Z,43.7
2022-08-04T16:52:16.523Z,43.3
2022-08-04T16:54:42.647Z,42.6
2022-08-04T16:57:08.780Z,42.8
2022-08-04T16:59:34.868Z,42.7
2022-08-04T17:02:00.919Z,42.9
2022-08-04T17:04:27.017Z,43.2
2022-08-04T17:06:52.138Z,42.7
2022-08-04T17:09:18.239Z,42.6
2022-08-04T17:11:44.352Z,42.8
2022-08-04T17:14:10.443Z,42.9
2022-08-04T17:16:36.543Z,42.7
2022-08-04T17:19:02.638Z,41.6
2022-08-04T17:21:28.734Z,41.4
2022-08-04T17:23:54.841Z,40.9
2022-08-04T17:26:20.932Z,40.6
2022-08-04T17:28:47.035Z,40.2
2022-08-04T17:31:13.160Z,40
2022-08-04T17:33:39.212Z,39.7
2022-08-04T17:36:05.323Z,39
2022-08-04T17:38:30.457Z,37.8
2022-08-04T17:40:56.534Z,36.5
2022-08-04T17:43:22.639Z,35.5
2022-08-04T17:45:48.734Z,35
2022-08-04T17:48:14.821Z,34.6
2022-08-04T17:50:40.925Z,34.2
2022-08-04T17:53:07.011Z,33.9
2022-08-04T17:55:33.155Z,33.5
2022-08-04T17:57:59.245Z,33
2022-08-04T18:00:25.324Z,32.7
2022-08-04T18:02:51.404Z,32.4
2022-08-04T18:05:17.491Z,32.2
2022-08-04T18:07:43.607Z,32
2022-08-04T18:10:08.724Z,31.7
2022-08-04T18:12:34.810Z,31.4
2022-08-04T18:15:00.892Z,31.1
2022-08-04T18:17:27.035Z,30.9
2022-08-04T18:19:53.089Z,30.7
2022-08-04T18:22:19.189Z,30.5
2022-08-04T18:24:45.290Z,30.3
2022-08-04T18:27:11.432Z,30.2
2022-08-04T18:29:37.496Z,30.1
2022-08-04T18:34:29.698Z,29.9
2022-08-04T18:36:55.806Z,29.7
2022-08-04T18:39:21.904Z,29.6
2022-08-04T18:41:46.978Z,29.5
2022-08-04T18:44:13.107Z,29.4
2022-08-04T18:46:39.199Z,29.3
2022-08-04T18:49:05.289Z,29.1
2022-08-04T18:51:31.404Z,28.9
2022-08-04T18:53:57.468Z,28.8
2022-08-04T18:56:23.566Z,28.6
2022-08-04T18:58:49.724Z,28.5
2022-08-04T19:01:15.746Z,28.4
2022-08-04T19:03:41.855Z,28.3
2022-08-04T19:06:07.953Z,28.3
2022-08-04T19:08:34.068Z,28.2
2022-08-04T19:11:00.168Z,28.1
2022-08-04T19:13:25.259Z,28
2022-08-04T19:15:51.366Z,28
2022-08-04T19:18:17.442Z,27.8
2022-08-04T19:20:43.550Z,27.8
2022-08-04T19:23:09.651Z,27.7
2022-08-04T19:25:35.718Z,27.6
2022-08-04T19:28:01.819Z,27.6
2022-08-04T19:30:27.939Z,27.5
2022-08-04T19:32:54.035Z,27.3
2022-08-04T19:35:20.112Z,27.2
2022-08-04T19:37:46.197Z,27.1
2022-08-04T19:40:12.290Z,27
2022-08-04T19:42:38.437Z,27
2022-08-04T19:45:03.547Z,27
2022-08-04T19:47:29.594Z,26.9
2022-08-04T19:49:55.689Z,26.9
2022-08-04T19:52:21.822Z,26.8
2022-08-04T19:54:47.889Z,26.7
2022-08-04T19:57:13.976Z,26.6
2022-08-04T19:59:40.070Z,26.6
2022-08-04T20:02:05.189Z,26.6
2022-08-04T20:04:31.285Z,26.5
2022-08-04T20:06:57.393Z,26.4
2022-08-04T20:09:23.492Z,26.4
2022-08-04T20:11:49.603Z,26.3
2022-08-04T20:14:15.685Z,26.3
2022-08-04T20:16:41.748Z,26.2
2022-08-04T20:19:07.862Z,26.2
2022-08-04T20:21:33.970Z,26.1
2022-08-04T20:24:00.064Z,26.1
2022-08-04T20:26:26.144Z,26
2022-08-04T20:28:52.266Z,25.9
2022-08-04T20:31:18.336Z,25.9
2022-08-04T20:33:43.446Z,25.9
2022-08-04T20:36:09.545Z,25.8
2022-08-04T20:38:35.630Z,25.7
2022-08-04T20:41:01.728Z,25.6
2022-08-04T20:43:27.818Z,25.6
2022-08-04T20:45:53.913Z,25.5
2022-08-04T20:48:20.019Z,25.5
2022-08-04T20:50:46.106Z,25.5
2022-08-04T20:53:12.203Z,25.4
2022-08-04T20:55:38.345Z,25.4
2022-08-04T20:58:04.427Z,25.3
2022-08-04T21:00:30.523Z,25.2
2022-08-04T21:02:56.597Z,25.2
2022-08-04T21:05:21.710Z,25.1
2022-08-04T21:07:47.788Z,25
2022-08-04T21:10:13.956Z,25
2022-08-04T21:12:40.014Z,25
2022-08-04T21:15:06.083Z,25
2022-08-04T21:17:32.178Z,24.9
2022-08-04T21:19:58.307Z,24.9
2022-08-04T21:22:24.364Z,24.8
2022-08-04T21:24:50.501Z,24.8
2022-08-04T21:27:16.564Z,24.7
2022-08-04T21:29:42.661Z,24.7
2022-08-04T21:32:08.752Z,24.6
2022-08-04T21:34:34.855Z,24.6
2022-08-04T21:36:59.982Z,24.6
2022-08-04T21:39:26.092Z,24.5
2022-08-04T21:41:52.175Z,24.5
2022-08-04T21:44:18.244Z,24.5
2022-08-04T21:46:44.377Z,24.5
2022-08-04T21:49:10.432Z,24.4
2022-08-04T21:51:36.527Z,24.4
2022-08-04T21:54:02.658Z,24.3
2022-08-04T21:56:28.740Z,24.3
2022-08-04T21:58:54.833Z,24.3
2022-08-04T22:01:20.910Z,24.2
2022-08-04T22:03:47.027Z,24.1
2022-08-04T22:06:13.114Z,24.1
2022-08-04T22:08:38.226Z,24.1
2022-08-04T22:11:04.350Z,24.1
2022-08-04T22:13:30.392Z,24.1
2022-08-04T22:15:56.497Z,24.1
2022-08-04T22:18:22.627Z,24.1
2022-08-04T22:20:48.716Z,24
2022-08-04T22:23:14.794Z,24
2022-08-04T22:25:40.862Z,23.9
2022-08-04T22:28:07.004Z,23.9
2022-08-04T22:30:33.099Z,23.9
2022-08-04T22:32:59.188Z,23.8
2022-08-04T22:35:25.248Z,23.8
2022-08-04T22:37:51.367Z,23.8
2022-08-04T22:40:16.465Z,23.7
2022-08-04T22:42:42.577Z,23.7
2022-08-04T22:45:08.676Z,23.8
2022-08-04T22:47:34.744Z,23.7
2022-08-04T22:50:00.868Z,23.6
2022-08-04T22:52:26.957Z,23.5
2022-08-04T22:54:53.068Z,23.5
2022-08-04T22:57:19.135Z,23.4
2022-08-04T22:59:45.251Z,23.4
2022-08-04T23:02:11.321Z,23.3
2022-08-04T23:04:37.428Z,23.2
2022-08-04T23:07:03.513Z,23.2
2022-08-04T23:09:29.608Z,23.1
2022-08-04T23:11:54.749Z,23.1
2022-08-04T23:14:20.804Z,23.1
2022-08-04T23:16:46.904Z,23
2022-08-04T23:19:12.993Z,23
2022-08-04T23:21:39.120Z,22.9
2022-08-04T23:24:05.194Z,22.9
2022-08-04T23:26:31.334Z,22.9
2022-08-04T23:28:57.408Z,22.9
2022-08-04T23:31:23.504Z,22.9
2022-08-04T23:33:49.573Z,22.8
2022-08-04T23:36:15.682Z,22.8
2022-08-04T23:38:41.804Z,22.8
2022-08-04T23:41:07.858Z,22.8
2022-08-04T23:43:32.977Z,22.8
2022-08-04T23:45:59.070Z,22.7
2022-08-04T23:48:25.182Z,22.7
2022-08-04T23:50:51.263Z,22.6
2022-08-04T23:53:17.366Z,22.5
2022-08-04T23:55:43.453Z,22.4
2022-08-04T23:58:09.562Z,22.4
